sensor_id;sensor_type;location;lat;lon;timestamp;temperature;humidity
20380;DHT22;10349;48.666;8.948;2022-08-01T00:00:29;18.90;99.90
20380;DHT22;10349;48.666;8.948;2022-08-01T00:02:54;18.80;99.90
20380;DHT22;10349;48.666;8.948;2022-08-01T00:05:20;18.80;99.90
20380;DHT22;10349;48.666;8.948;2022-08-01T00:07:45;18.80;99.90
20380;DHT22;10349;48.666;8.948;2022-08-01T00:10:13;18.60;99.90
20380;DHT22;10349;48.666;8.948;2022-08-01T00:12:39;18.60;99.90
20380;DHT22;10349;48.666;8.948;2022-08-01T00:15:06;18.50;99.90
20380;DHT22;10349;48.666;8.948;2022-08-01T00:17:32;18.40;99.90
20380;DHT22;10349;48.666;8.948;2022-08-01T00:19:58;18.40;99.90
20380;DHT22;10349;48.666;8.948;2022-08-01T00:22:24;18.40;99.90
20380;DHT22;10349;48.666;8.948;2022-08-01T00:24:49;18.40;99.90
20380;DHT22;10349;48.666;8.948;2022-08-01T00:27:15;18.30;99.90
20380;DHT22;10349;48.666;8.948;2022-08-01T00:29:41;18.30;99.90
20380;DHT22;10349;48.666;8.948;2022-08-01T00:32:07;18.30;99.90
20380;DHT22;10349;48.666;8.948;2022-08-01T00:34:33;18.30;99.90
20380;DHT22;10349;48.666;8.948;2022-08-01T00:36:58;18.20;99.90
20380;DHT22;10349;48.666;8.948;2022-08-01T00:39:24;18.20;99.90
20380;DHT22;10349;48.666;8.948;2022-08-01T00:41:50;18.20;99.90
20380;DHT22;10349;48.666;8.948;2022-08-01T00:44:16;18.20;99.90
20380;DHT22;10349;48.666;8.948;2022-08-01T00:46:41;18.20;99.90
20380;DHT22;10349;48.666;8.948;2022-08-01T00:49:07;18.20;99.90
20380;DHT22;10349;48.666;8.948;2022-08-01T00:51:33;18.10;99.90
20380;DHT22;10349;48.666;8.948;2022-08-01T00:53:59;18.10;99.90
20380;DHT22;10349;48.666;8.948;2022-08-01T00:56:27;18.20;99.90
20380;DHT22;10349;48.666;8.948;2022-08-01T00:58:54;18.20;99.90
20380;DHT22;10349;48.666;8.948;2022-08-01T01:01:20;18.10;99.90
20380;DHT22;10349;48.666;8.948;2022-08-01T01:03:51;18.10;99.90
20380;DHT22;10349;48.666;8.948;2022-08-01T01:17:16;17.90;99.90
20380;DHT22;10349;48.666;8.948;2022-08-01T01:19:47;17.90;99.90
20380;DHT22;10349;48.666;8.948;2022-08-01T01:25:51;17.80;99.90
20380;DHT22;10349;48.666;8.948;2022-08-01T01:31:08;17.80;99.90
20380;DHT22;10349;48.666;8.948;2022-08-01T01:33:37;17.70;99.90
20380;DHT22;10349;48.666;8.948;2022-08-01T01:36:09;17.70;99.90
20380;DHT22;10349;48.666;8.948;2022-08-01T01:38:39;17.70;99.90
20380;DHT22;10349;48.666;8.948;2022-08-01T01:41:11;17.60;99.90
20380;DHT22;10349;48.666;8.948;2022-08-01T01:43:39;17.40;99.90
20380;DHT22;10349;48.666;8.948;2022-08-01T01:46:06;17.30;99.90
20380;DHT22;10349;48.666;8.948;2022-08-01T01:48:34;17.20;99.90
20380;DHT22;10349;48.666;8.948;2022-08-01T01:51:01;17.20;99.90
20380;DHT22;10349;48.666;8.948;2022-08-01T01:53:28;17.20;99.90
20380;DHT22;10349;48.666;8.948;2022-08-01T01:55:57;17.20;99.90
20380;DHT22;10349;48.666;8.948;2022-08-01T01:58:25;17.20;99.90
20380;DHT22;10349;48.666;8.948;2022-08-01T02:00:53;17.20;99.90
20380;DHT22;10349;48.666;8.948;2022-08-01T02:03:21;17.20;99.90
20380;DHT22;10349;48.666;8.948;2022-08-01T02:05:47;17.20;99.90
20380;DHT22;10349;48.666;8.948;2022-08-01T02:08:15;17.30;99.90
20380;DHT22;10349;48.666;8.948;2022-08-01T02:10:42;17.30;99.90
20380;DHT22;10349;48.666;8.948;2022-08-01T02:13:31;17.30;99.90
20380;DHT22;10349;48.666;8.948;2022-08-01T02:15:58;17.30;99.90
20380;DHT22;10349;48.666;8.948;2022-08-01T02:18:24;17.30;99.90
20380;DHT22;10349;48.666;8.948;2022-08-01T02:20:52;17.30;99.90
20380;DHT22;10349;48.666;8.948;2022-08-01T02:23:18;17.30;99.90
20380;DHT22;10349;48.666;8.948;2022-08-01T02:25:48;17.30;99.90
20380;DHT22;10349;48.666;8.948;2022-08-01T02:28:21;17.30;99.90
20380;DHT22;10349;48.666;8.948;2022-08-01T02:30:56;17.30;99.90
20380;DHT22;10349;48.666;8.948;2022-08-01T02:33:33;17.30;99.90
20380;DHT22;10349;48.666;8.948;2022-08-01T02:36:01;17.20;99.90
20380;DHT22;10349;48.666;8.948;2022-08-01T02:38:30;17.20;99.90
20380;DHT22;10349;48.666;8.948;2022-08-01T02:41:00;17.20;99.90
20380;DHT22;10349;48.666;8.948;2022-08-01T02:43:30;17.20;99.90
20380;DHT22;10349;48.666;8.948;2022-08-01T02:46:01;17.20;99.90
20380;DHT22;10349;48.666;8.948;2022-08-01T02:48:28;17.10;99.90
20380;DHT22;10349;48.666;8.948;2022-08-01T02:50:58;17.10;99.90
20380;DHT22;10349;48.666;8.948;2022-08-01T02:53:27;17.10;99.90
20380;DHT22;10349;48.666;8.948;2022-08-01T02:55:55;17.10;99.90
20380;DHT22;10349;48.666;8.948;2022-08-01T02:58:22;17.10;99.90
20380;DHT22;10349;48.666;8.948;2022-08-01T03:00:50;17.10;99.90
20380;DHT22;10349;48.666;8.948;2022-08-01T03:03:16;17.10;99.90
20380;DHT22;10349;48.666;8.948;2022-08-01T03:05:43;17.10;99.90
20380;DHT22;10349;48.666;8.948;2022-08-01T03:08:10;17.00;99.90
20380;DHT22;10349;48.666;8.948;2022-08-01T03:10:38;16.90;99.90
20380;DHT22;10349;48.666;8.948;2022-08-01T03:13:06;16.80;99.90
20380;DHT22;10349;48.666;8.948;2022-08-01T03:15:35;16.70;99.90
20380;DHT22;10349;48.666;8.948;2022-08-01T03:18:03;16.70;99.90
20380;DHT22;10349;48.666;8.948;2022-08-01T03:20:32;16.70;99.90
20380;DHT22;10349;48.666;8.948;2022-08-01T03:23:00;16.70;99.90
20380;DHT22;10349;48.666;8.948;2022-08-01T03:25:28;16.70;99.90
20380;DHT22;10349;48.666;8.948;2022-08-01T03:27:58;16.70;99.90
20380;DHT22;10349;48.666;8.948;2022-08-01T03:30:26;16.60;99.90
20380;DHT22;10349;48.666;8.948;2022-08-01T03:32:52;16.60;99.90
20380;DHT22;10349;48.666;8.948;2022-08-01T03:35:19;16.60;99.90
20380;DHT22;10349;48.666;8.948;2022-08-01T03:37:50;16.60;99.90
20380;DHT22;10349;48.666;8.948;2022-08-01T03:42:49;16.50;99.90
20380;DHT22;10349;48.666;8.948;2022-08-01T03:45:25;16.50;99.90
20380;DHT22;10349;48.666;8.948;2022-08-01T03:48:01;16.50;99.90
20380;DHT22;10349;48.666;8.948;2022-08-01T03:50:29;16.40;99.90
20380;DHT22;10349;48.666;8.948;2022-08-01T03:52:57;16.40;99.90
20380;DHT22;10349;48.666;8.948;2022-08-01T03:55:24;16.40;99.90
20380;DHT22;10349;48.666;8.948;2022-08-01T03:57:51;16.50;99.90
20380;DHT22;10349;48.666;8.948;2022-08-01T04:00:17;16.60;99.90
20380;DHT22;10349;48.666;8.948;2022-08-01T04:02:46;16.50;99.90
20380;DHT22;10349;48.666;8.948;2022-08-01T04:05:12;16.50;99.90
20380;DHT22;10349;48.666;8.948;2022-08-01T04:07:38;16.50;99.90
20380;DHT22;10349;48.666;8.948;2022-08-01T04:10:05;16.50;99.90
20380;DHT22;10349;48.666;8.948;2022-08-01T04:12:32;16.50;99.90
20380;DHT22;10349;48.666;8.948;2022-08-01T04:14:58;16.50;99.90
20380;DHT22;10349;48.666;8.948;2022-08-01T04:17:24;16.40;99.90
20380;DHT22;10349;48.666;8.948;2022-08-01T04:19:50;16.40;99.90
20380;DHT22;10349;48.666;8.948;2022-08-01T04:22:16;16.40;99.90
20380;DHT22;10349;48.666;8.948;2022-08-01T04:24:45;16.50;99.90
20380;DHT22;10349;48.666;8.948;2022-08-01T04:27:17;16.50;99.90
20380;DHT22;10349;48.666;8.948;2022-08-01T04:29:45;16.50;99.90
20380;DHT22;10349;48.666;8.948;2022-08-01T04:32:12;16.50;99.90
20380;DHT22;10349;48.666;8.948;2022-08-01T04:34:41;16.50;99.90
20380;DHT22;10349;48.666;8.948;2022-08-01T04:37:09;16.60;99.90
20380;DHT22;10349;48.666;8.948;2022-08-01T04:39:37;16.60;99.90
20380;DHT22;10349;48.666;8.948;2022-08-01T04:42:04;16.70;99.90
20380;DHT22;10349;48.666;8.948;2022-08-01T04:44:32;16.70;99.90
20380;DHT22;10349;48.666;8.948;2022-08-01T04:47:02;16.70;99.90
20380;DHT22;10349;48.666;8.948;2022-08-01T04:49:31;16.80;99.90
20380;DHT22;10349;48.666;8.948;2022-08-01T04:51:57;16.80;99.90
20380;DHT22;10349;48.666;8.948;2022-08-01T04:54:24;16.90;99.90
20380;DHT22;10349;48.666;8.948;2022-08-01T04:56:50;16.90;99.90
20380;DHT22;10349;48.666;8.948;2022-08-01T04:59:16;17.20;99.90
20380;DHT22;10349;48.666;8.948;2022-08-01T05:02:00;17.80;99.90
20380;DHT22;10349;48.666;8.948;2022-08-01T05:04:26;18.50;99.90
20380;DHT22;10349;48.666;8.948;2022-08-01T05:06:52;19.10;99.90
20380;DHT22;10349;48.666;8.948;2022-08-01T05:09:17;19.10;99.90
20380;DHT22;10349;48.666;8.948;2022-08-01T05:11:43;19.20;99.90
20380;DHT22;10349;48.666;8.948;2022-08-01T05:14:08;19.10;99.90
20380;DHT22;10349;48.666;8.948;2022-08-01T05:16:34;18.90;99.90
20380;DHT22;10349;48.666;8.948;2022-08-01T05:19:00;18.80;99.90
20380;DHT22;10349;48.666;8.948;2022-08-01T05:21:28;18.80;99.90
20380;DHT22;10349;48.666;8.948;2022-08-01T05:23:53;18.70;99.90
20380;DHT22;10349;48.666;8.948;2022-08-01T05:26:19;18.60;99.90
20380;DHT22;10349;48.666;8.948;2022-08-01T05:28:44;18.80;99.90
20380;DHT22;10349;48.666;8.948;2022-08-01T05:31:10;19.00;99.90
20380;DHT22;10349;48.666;8.948;2022-08-01T05:33:36;19.10;99.90
20380;DHT22;10349;48.666;8.948;2022-08-01T05:36:02;19.30;99.90
20380;DHT22;10349;48.666;8.948;2022-08-01T05:38:27;19.60;99.90
20380;DHT22;10349;48.666;8.948;2022-08-01T05:40:53;20.30;99.90
20380;DHT22;10349;48.666;8.948;2022-08-01T05:43:19;21.00;99.90
20380;DHT22;10349;48.666;8.948;2022-08-01T05:45:44;21.50;99.90
20380;DHT22;10349;48.666;8.948;2022-08-01T05:48:11;21.70;99.90
20380;DHT22;10349;48.666;8.948;2022-08-01T05:50:37;21.80;99.90
20380;DHT22;10349;48.666;8.948;2022-08-01T05:53:02;21.90;99.90
20380;DHT22;10349;48.666;8.948;2022-08-01T05:55:28;22.00;99.90
20380;DHT22;10349;48.666;8.948;2022-08-01T05:57:54;21.90;99.90
20380;DHT22;10349;48.666;8.948;2022-08-01T06:00:19;21.80;99.90
20380;DHT22;10349;48.666;8.948;2022-08-01T06:02:45;21.30;99.90
20380;DHT22;10349;48.666;8.948;2022-08-01T06:05:11;21.10;99.90
20380;DHT22;10349;48.666;8.948;2022-08-01T06:07:37;20.90;99.90
20380;DHT22;10349;48.666;8.948;2022-08-01T06:10:04;20.90;99.90
20380;DHT22;10349;48.666;8.948;2022-08-01T06:12:33;20.90;99.90
20380;DHT22;10349;48.666;8.948;2022-08-01T06:14:59;20.90;99.90
20380;DHT22;10349;48.666;8.948;2022-08-01T06:17:24;20.90;99.90
20380;DHT22;10349;48.666;8.948;2022-08-01T06:19:50;20.80;99.90
20380;DHT22;10349;48.666;8.948;2022-08-01T06:22:16;20.80;99.90
20380;DHT22;10349;48.666;8.948;2022-08-01T06:24:42;20.90;99.90
20380;DHT22;10349;48.666;8.948;2022-08-01T06:27:07;20.90;99.90
20380;DHT22;10349;48.666;8.948;2022-08-01T06:29:33;20.90;99.90
20380;DHT22;10349;48.666;8.948;2022-08-01T06:32:00;21.00;99.90
20380;DHT22;10349;48.666;8.948;2022-08-01T06:34:26;21.00;99.90
20380;DHT22;10349;48.666;8.948;2022-08-01T06:36:51;21.10;99.90
20380;DHT22;10349;48.666;8.948;2022-08-01T06:39:17;21.10;99.90
20380;DHT22;10349;48.666;8.948;2022-08-01T06:41:42;21.10;99.90
20380;DHT22;10349;48.666;8.948;2022-08-01T06:44:11;21.10;99.90
20380;DHT22;10349;48.666;8.948;2022-08-01T06:46:37;21.10;99.90
20380;DHT22;10349;48.666;8.948;2022-08-01T06:49:03;21.20;99.90
20380;DHT22;10349;48.666;8.948;2022-08-01T06:51:29;21.10;99.90
20380;DHT22;10349;48.666;8.948;2022-08-01T06:53:55;21.20;99.90
20380;DHT22;10349;48.666;8.948;2022-08-01T06:56:20;21.20;99.90
20380;DHT22;10349;48.666;8.948;2022-08-01T06:58:46;21.30;99.90
20380;DHT22;10349;48.666;8.948;2022-08-01T07:01:12;21.40;99.90
20380;DHT22;10349;48.666;8.948;2022-08-01T07:03:38;21.40;99.90
20380;DHT22;10349;48.666;8.948;2022-08-01T07:06:04;21.60;99.90
20380;DHT22;10349;48.666;8.948;2022-08-01T07:08:29;21.60;99.90
20380;DHT22;10349;48.666;8.948;2022-08-01T07:10:55;21.70;99.90
20380;DHT22;10349;48.666;8.948;2022-08-01T07:13:27;21.80;99.90
20380;DHT22;10349;48.666;8.948;2022-08-01T07:15:52;21.80;99.90
20380;DHT22;10349;48.666;8.948;2022-08-01T07:18:19;21.80;99.90
20380;DHT22;10349;48.666;8.948;2022-08-01T07:20:44;21.90;99.90
20380;DHT22;10349;48.666;8.948;2022-08-01T07:23:13;21.90;99.90
20380;DHT22;10349;48.666;8.948;2022-08-01T07:25:38;22.00;99.90
20380;DHT22;10349;48.666;8.948;2022-08-01T07:28:04;22.10;99.90
20380;DHT22;10349;48.666;8.948;2022-08-01T07:30:30;22.10;99.90
20380;DHT22;10349;48.666;8.948;2022-08-01T07:32:56;22.10;99.90
20380;DHT22;10349;48.666;8.948;2022-08-01T07:35:22;22.20;99.90
20380;DHT22;10349;48.666;8.948;2022-08-01T07:37:48;22.30;99.90
20380;DHT22;10349;48.666;8.948;2022-08-01T07:40:14;22.30;99.90
20380;DHT22;10349;48.666;8.948;2022-08-01T07:42:39;22.40;99.90
20380;DHT22;10349;48.666;8.948;2022-08-01T07:45:10;22.40;99.90
20380;DHT22;10349;48.666;8.948;2022-08-01T07:47:35;22.50;99.90
20380;DHT22;10349;48.666;8.948;2022-08-01T07:50:02;22.50;99.90
20380;DHT22;10349;48.666;8.948;2022-08-01T07:52:29;22.60;99.90
20380;DHT22;10349;48.666;8.948;2022-08-01T07:54:56;22.70;99.90
20380;DHT22;10349;48.666;8.948;2022-08-01T07:57:22;22.80;99.90
20380;DHT22;10349;48.666;8.948;2022-08-01T07:59:48;22.90;99.90
20380;DHT22;10349;48.666;8.948;2022-08-01T08:02:14;23.10;99.90
20380;DHT22;10349;48.666;8.948;2022-08-01T08:04:40;23.10;99.90
20380;DHT22;10349;48.666;8.948;2022-08-01T08:07:06;23.20;99.90
20380;DHT22;10349;48.666;8.948;2022-08-01T08:09:32;23.30;99.90
20380;DHT22;10349;48.666;8.948;2022-08-01T08:11:57;23.30;99.90
20380;DHT22;10349;48.666;8.948;2022-08-01T08:14:23;23.40;99.90
20380;DHT22;10349;48.666;8.948;2022-08-01T08:16:50;23.50;99.90
20380;DHT22;10349;48.666;8.948;2022-08-01T08:19:16;23.60;99.90
20380;DHT22;10349;48.666;8.948;2022-08-01T08:21:42;23.60;99.90
20380;DHT22;10349;48.666;8.948;2022-08-01T08:24:08;23.70;99.90
20380;DHT22;10349;48.666;8.948;2022-08-01T08:26:54;23.80;99.90
20380;DHT22;10349;48.666;8.948;2022-08-01T08:29:21;23.90;99.90
20380;DHT22;10349;48.666;8.948;2022-08-01T08:31:47;24.00;99.90
20380;DHT22;10349;48.666;8.948;2022-08-01T08:34:13;24.10;99.90
20380;DHT22;10349;48.666;8.948;2022-08-01T08:36:39;24.10;99.90
20380;DHT22;10349;48.666;8.948;2022-08-01T08:39:05;24.20;99.90
20380;DHT22;10349;48.666;8.948;2022-08-01T08:41:32;24.30;99.90
20380;DHT22;10349;48.666;8.948;2022-08-01T08:44:00;24.30;99.90
20380;DHT22;10349;48.666;8.948;2022-08-01T08:46:27;24.40;99.90
20380;DHT22;10349;48.666;8.948;2022-08-01T08:48:54;24.40;99.90
20380;DHT22;10349;48.666;8.948;2022-08-01T08:51:21;24.50;99.90
20380;DHT22;10349;48.666;8.948;2022-08-01T08:53:49;24.50;99.90
20380;DHT22;10349;48.666;8.948;2022-08-01T08:56:18;24.50;99.90
20380;DHT22;10349;48.666;8.948;2022-08-01T08:58:45;24.40;99.90
20380;DHT22;10349;48.666;8.948;2022-08-01T09:01:11;24.50;99.90
20380;DHT22;10349;48.666;8.948;2022-08-01T09:03:38;24.50;99.90
20380;DHT22;10349;48.666;8.948;2022-08-01T09:06:04;24.50;99.90
20380;DHT22;10349;48.666;8.948;2022-08-01T09:08:30;24.60;99.90
20380;DHT22;10349;48.666;8.948;2022-08-01T09:10:56;24.70;99.90
20380;DHT22;10349;48.666;8.948;2022-08-01T09:13:21;24.80;99.90
20380;DHT22;10349;48.666;8.948;2022-08-01T09:15:50;24.90;99.90
20380;DHT22;10349;48.666;8.948;2022-08-01T09:18:27;25.00;99.90
20380;DHT22;10349;48.666;8.948;2022-08-01T09:21:21;25.10;99.90
20380;DHT22;10349;48.666;8.948;2022-08-01T09:23:54;25.20;99.90
20380;DHT22;10349;48.666;8.948;2022-08-01T09:26:40;25.30;99.90
20380;DHT22;10349;48.666;8.948;2022-08-01T09:29:08;25.50;99.90
20380;DHT22;10349;48.666;8.948;2022-08-01T09:31:43;25.70;99.90
20380;DHT22;10349;48.666;8.948;2022-08-01T09:34:09;25.80;99.90
20380;DHT22;10349;48.666;8.948;2022-08-01T09:36:53;26.00;99.90
20380;DHT22;10349;48.666;8.948;2022-08-01T09:39:33;26.20;99.90
20380;DHT22;10349;48.666;8.948;2022-08-01T09:42:01;26.30;99.90
20380;DHT22;10349;48.666;8.948;2022-08-01T09:44:39;26.30;99.90
20380;DHT22;10349;48.666;8.948;2022-08-01T09:47:05;26.30;99.90
20380;DHT22;10349;48.666;8.948;2022-08-01T09:49:36;26.20;99.90
20380;DHT22;10349;48.666;8.948;2022-08-01T09:52:21;25.90;99.90
20380;DHT22;10349;48.666;8.948;2022-08-01T09:55:03;25.80;99.90
20380;DHT22;10349;48.666;8.948;2022-08-01T09:57:29;25.80;99.90
20380;DHT22;10349;48.666;8.948;2022-08-01T09:59:57;25.80;99.90
20380;DHT22;10349;48.666;8.948;2022-08-01T10:02:34;25.90;99.90
20380;DHT22;10349;48.666;8.948;2022-08-01T10:05:01;25.90;99.90
20380;DHT22;10349;48.666;8.948;2022-08-01T10:07:27;26.00;99.90
20380;DHT22;10349;48.666;8.948;2022-08-01T10:09:53;25.80;99.90
20380;DHT22;10349;48.666;8.948;2022-08-01T10:12:22;25.70;99.90
20380;DHT22;10349;48.666;8.948;2022-08-01T10:14:50;25.70;99.90
20380;DHT22;10349;48.666;8.948;2022-08-01T10:17:19;25.70;99.90
20380;DHT22;10349;48.666;8.948;2022-08-01T10:19:45;25.70;99.90
20380;DHT22;10349;48.666;8.948;2022-08-01T10:22:13;25.80;99.90
20380;DHT22;10349;48.666;8.948;2022-08-01T10:24:44;26.00;99.90
20380;DHT22;10349;48.666;8.948;2022-08-01T10:27:11;26.00;99.90
20380;DHT22;10349;48.666;8.948;2022-08-01T10:29:42;26.00;99.90
20380;DHT22;10349;48.666;8.948;2022-08-01T10:32:09;25.90;99.90
20380;DHT22;10349;48.666;8.948;2022-08-01T10:34:36;26.00;99.90
20380;DHT22;10349;48.666;8.948;2022-08-01T10:37:03;26.00;99.90
20380;DHT22;10349;48.666;8.948;2022-08-01T10:39:31;25.80;99.90
20380;DHT22;10349;48.666;8.948;2022-08-01T10:41:57;25.70;99.90
20380;DHT22;10349;48.666;8.948;2022-08-01T10:44:26;25.80;99.90
20380;DHT22;10349;48.666;8.948;2022-08-01T10:46:59;25.80;99.90
20380;DHT22;10349;48.666;8.948;2022-08-01T10:49:30;26.00;99.90
20380;DHT22;10349;48.666;8.948;2022-08-01T10:51:55;26.10;99.90
20380;DHT22;10349;48.666;8.948;2022-08-01T10:54:24;26.10;99.90
20380;DHT22;10349;48.666;8.948;2022-08-01T10:56:51;26.10;99.90
20380;DHT22;10349;48.666;8.948;2022-08-01T10:59:22;26.00;99.90
20380;DHT22;10349;48.666;8.948;2022-08-01T11:01:59;26.00;99.90
20380;DHT22;10349;48.666;8.948;2022-08-01T11:10:25;25.90;99.90
20380;DHT22;10349;48.666;8.948;2022-08-01T11:12:52;25.80;99.90
20380;DHT22;10349;48.666;8.948;2022-08-01T11:15:20;25.80;99.90
20380;DHT22;10349;48.666;8.948;2022-08-01T11:17:53;26.00;99.90
20380;DHT22;10349;48.666;8.948;2022-08-01T11:20:22;26.10;99.90
20380;DHT22;10349;48.666;8.948;2022-08-01T11:30:43;26.80;99.90
20380;DHT22;10349;48.666;8.948;2022-08-01T11:33:09;26.80;99.90
20380;DHT22;10349;48.666;8.948;2022-08-01T11:35:36;26.80;99.90
20380;DHT22;10349;48.666;8.948;2022-08-01T11:38:24;26.60;99.90
20380;DHT22;10349;48.666;8.948;2022-08-01T11:41:29;26.70;99.90
20380;DHT22;10349;48.666;8.948;2022-08-01T11:44:01;26.80;99.90
20380;DHT22;10349;48.666;8.948;2022-08-01T11:52:00;26.70;99.90
20380;DHT22;10349;48.666;8.948;2022-08-01T11:54:28;26.70;99.90
20380;DHT22;10349;48.666;8.948;2022-08-01T11:56:59;26.50;99.90
20380;DHT22;10349;48.666;8.948;2022-08-01T11:59:26;26.30;99.90
20380;DHT22;10349;48.666;8.948;2022-08-01T12:01:52;26.20;99.90
20380;DHT22;10349;48.666;8.948;2022-08-01T12:04:18;26.20;99.90
20380;DHT22;10349;48.666;8.948;2022-08-01T12:06:43;26.30;99.90
20380;DHT22;10349;48.666;8.948;2022-08-01T12:09:19;26.40;99.90
20380;DHT22;10349;48.666;8.948;2022-08-01T12:11:45;26.70;99.90
20380;DHT22;10349;48.666;8.948;2022-08-01T12:14:20;26.90;99.90
20380;DHT22;10349;48.666;8.948;2022-08-01T12:16:54;27.20;99.90
20380;DHT22;10349;48.666;8.948;2022-08-01T12:19:21;27.50;99.90
20380;DHT22;10349;48.666;8.948;2022-08-01T12:22:11;27.80;99.90
20380;DHT22;10349;48.666;8.948;2022-08-01T12:24:38;27.90;99.90
20380;DHT22;10349;48.666;8.948;2022-08-01T12:27:05;27.80;99.90
20380;DHT22;10349;48.666;8.948;2022-08-01T12:29:40;27.90;99.90
20380;DHT22;10349;48.666;8.948;2022-08-01T12:32:26;27.70;99.90
20380;DHT22;10349;48.666;8.948;2022-08-01T12:34:53;27.50;99.90
20380;DHT22;10349;48.666;8.948;2022-08-01T12:37:18;27.40;99.90
20380;DHT22;10349;48.666;8.948;2022-08-01T12:39:45;27.40;99.90
20380;DHT22;10349;48.666;8.948;2022-08-01T12:42:12;27.40;99.90
20380;DHT22;10349;48.666;8.948;2022-08-01T12:44:39;27.40;99.90
20380;DHT22;10349;48.666;8.948;2022-08-01T12:47:08;27.40;99.90
20380;DHT22;10349;48.666;8.948;2022-08-01T12:49:37;27.50;99.90
20380;DHT22;10349;48.666;8.948;2022-08-01T12:52:04;27.50;99.90
20380;DHT22;10349;48.666;8.948;2022-08-01T12:54:30;27.50;99.90
20380;DHT22;10349;48.666;8.948;2022-08-01T12:56:55;27.40;99.90
20380;DHT22;10349;48.666;8.948;2022-08-01T12:59:26;27.20;99.90
20380;DHT22;10349;48.666;8.948;2022-08-01T13:01:55;27.10;99.90
20380;DHT22;10349;48.666;8.948;2022-08-01T13:04:24;27.30;99.90
20380;DHT22;10349;48.666;8.948;2022-08-01T13:06:53;27.70;99.90
20380;DHT22;10349;48.666;8.948;2022-08-01T13:09:19;28.10;99.90
20380;DHT22;10349;48.666;8.948;2022-08-01T13:11:45;28.40;99.90
20380;DHT22;10349;48.666;8.948;2022-08-01T13:14:29;28.50;99.90
20380;DHT22;10349;48.666;8.948;2022-08-01T13:16:55;28.60;99.90
20380;DHT22;10349;48.666;8.948;2022-08-01T13:19:27;28.60;99.90
20380;DHT22;10349;48.666;8.948;2022-08-01T13:22:06;28.70;99.90
20380;DHT22;10349;48.666;8.948;2022-08-01T13:24:32;28.90;99.90
20380;DHT22;10349;48.666;8.948;2022-08-01T13:27:01;29.00;99.90
20380;DHT22;10349;48.666;8.948;2022-08-01T13:29:39;28.80;99.90
20380;DHT22;10349;48.666;8.948;2022-08-01T13:32:21;28.90;99.90
20380;DHT22;10349;48.666;8.948;2022-08-01T13:34:48;29.20;99.90
20380;DHT22;10349;48.666;8.948;2022-08-01T13:37:13;29.40;99.90
20380;DHT22;10349;48.666;8.948;2022-08-01T13:39:43;29.40;99.90
20380;DHT22;10349;48.666;8.948;2022-08-01T13:42:14;29.30;99.90
20380;DHT22;10349;48.666;8.948;2022-08-01T13:44:41;29.20;99.90
20380;DHT22;10349;48.666;8.948;2022-08-01T13:47:07;29.20;99.90
20380;DHT22;10349;48.666;8.948;2022-08-01T13:49:34;28.80;99.90
20380;DHT22;10349;48.666;8.948;2022-08-01T13:52:00;28.60;99.90
20380;DHT22;10349;48.666;8.948;2022-08-01T13:54:26;28.30;99.90
20380;DHT22;10349;48.666;8.948;2022-08-01T13:56:53;28.10;99.90
20380;DHT22;10349;48.666;8.948;2022-08-01T13:59:19;28.00;99.90
20380;DHT22;10349;48.666;8.948;2022-08-01T14:01:44;27.90;99.90
20380;DHT22;10349;48.666;8.948;2022-08-01T14:04:10;27.80;99.90
20380;DHT22;10349;48.666;8.948;2022-08-01T14:06:36;27.90;99.90
20380;DHT22;10349;48.666;8.948;2022-08-01T14:09:03;28.00;99.90
20380;DHT22;10349;48.666;8.948;2022-08-01T14:11:29;28.00;99.90
20380;DHT22;10349;48.666;8.948;2022-08-01T14:13:54;27.80;99.90
20380;DHT22;10349;48.666;8.948;2022-08-01T14:16:20;27.80;99.90
20380;DHT22;10349;48.666;8.948;2022-08-01T14:18:46;28.10;99.90
20380;DHT22;10349;48.666;8.948;2022-08-01T14:21:11;28.40;99.90
20380;DHT22;10349;48.666;8.948;2022-08-01T14:23:38;28.80;99.90
20380;DHT22;10349;48.666;8.948;2022-08-01T14:26:03;28.90;99.90
20380;DHT22;10349;48.666;8.948;2022-08-01T14:28:29;29.00;99.90
20380;DHT22;10349;48.666;8.948;2022-08-01T14:30:56;28.90;99.90
20380;DHT22;10349;48.666;8.948;2022-08-01T14:33:22;28.90;99.90
20380;DHT22;10349;48.666;8.948;2022-08-01T14:35:48;28.60;99.90
20380;DHT22;10349;48.666;8.948;2022-08-01T14:38:14;28.50;99.90
20380;DHT22;10349;48.666;8.948;2022-08-01T14:40:39;28.40;99.90
20380;DHT22;10349;48.666;8.948;2022-08-01T14:43:06;28.20;99.90
20380;DHT22;10349;48.666;8.948;2022-08-01T14:45:32;28.30;99.90
20380;DHT22;10349;48.666;8.948;2022-08-01T14:47:58;28.40;99.90
20380;DHT22;10349;48.666;8.948;2022-08-01T14:50:24;28.40;99.90
20380;DHT22;10349;48.666;8.948;2022-08-01T14:52:52;28.30;99.90
20380;DHT22;10349;48.666;8.948;2022-08-01T14:55:18;28.30;99.90
20380;DHT22;10349;48.666;8.948;2022-08-01T14:57:46;28.30;99.90
20380;DHT22;10349;48.666;8.948;2022-08-01T15:00:12;28.50;99.90
20380;DHT22;10349;48.666;8.948;2022-08-01T15:02:39;28.50;99.90
20380;DHT22;10349;48.666;8.948;2022-08-01T15:05:06;28.50;99.90
20380;DHT22;10349;48.666;8.948;2022-08-01T15:07:31;28.60;99.90
20380;DHT22;10349;48.666;8.948;2022-08-01T15:09:57;28.50;99.90
20380;DHT22;10349;48.666;8.948;2022-08-01T15:12:23;28.40;99.90
20380;DHT22;10349;48.666;8.948;2022-08-01T15:14:49;28.30;99.90
20380;DHT22;10349;48.666;8.948;2022-08-01T15:17:19;28.30;99.90
20380;DHT22;10349;48.666;8.948;2022-08-01T15:19:47;28.40;99.90
20380;DHT22;10349;48.666;8.948;2022-08-01T15:22:13;28.30;99.90
20380;DHT22;10349;48.666;8.948;2022-08-01T15:24:39;28.10;99.90
20380;DHT22;10349;48.666;8.948;2022-08-01T15:27:05;28.00;99.90
20380;DHT22;10349;48.666;8.948;2022-08-01T15:29:32;28.00;99.90
20380;DHT22;10349;48.666;8.948;2022-08-01T15:31:58;27.90;99.90
20380;DHT22;10349;48.666;8.948;2022-08-01T15:34:24;28.00;99.90
20380;DHT22;10349;48.666;8.948;2022-08-01T15:36:51;28.10;99.90
20380;DHT22;10349;48.666;8.948;2022-08-01T15:39:16;28.20;99.90
20380;DHT22;10349;48.666;8.948;2022-08-01T15:41:42;28.20;99.90
20380;DHT22;10349;48.666;8.948;2022-08-01T15:44:08;28.20;99.90
20380;DHT22;10349;48.666;8.948;2022-08-01T15:46:33;28.30;99.90
20380;DHT22;10349;48.666;8.948;2022-08-01T15:49:04;28.30;99.90
20380;DHT22;10349;48.666;8.948;2022-08-01T15:51:31;28.10;99.90
20380;DHT22;10349;48.666;8.948;2022-08-01T15:53:57;28.00;99.90
20380;DHT22;10349;48.666;8.948;2022-08-01T15:56:23;28.00;99.90
20380;DHT22;10349;48.666;8.948;2022-08-01T15:58:50;28.10;99.90
20380;DHT22;10349;48.666;8.948;2022-08-01T16:01:16;28.00;99.90
20380;DHT22;10349;48.666;8.948;2022-08-01T16:03:41;28.00;99.90
20380;DHT22;10349;48.666;8.948;2022-08-01T16:06:07;27.90;99.90
20380;DHT22;10349;48.666;8.948;2022-08-01T16:08:33;27.90;99.90
20380;DHT22;10349;48.666;8.948;2022-08-01T16:10:59;27.90;99.90
20380;DHT22;10349;48.666;8.948;2022-08-01T16:13:25;27.60;99.90